createdAt,value
2022-11-05T00:00:18.691Z,34.88
2022-11-05T00:03:04.010Z,27.23
2022-11-05T00:05:49.945Z,25.27
2022-11-05T00:08:34.819Z,32.65
2022-11-05T00:11:01.244Z,22.48
2022-11-05T00:13:46.747Z,27.92
2022-11-05T00:16:31.404Z,30.65
2022-11-05T00:19:06.803Z,24.35
2022-11-05T00:21:53.286Z,25.85
2022-11-05T00:24:38.580Z,25.95
2022-11-05T00:27:04.964Z,27.42
2022-11-05T00:29:31.378Z,27.23
2022-11-05T00:31:57.736Z,22.65
2022-11-05T00:34:24.086Z,25.27
2022-11-05T00:36:50.442Z,29.23
2022-11-05T00:39:16.792Z,24.10
2022-11-05T00:41:43.372Z,22.98
2022-11-05T00:44:28.058Z,19.40
2022-11-05T00:47:14.382Z,18.40
2022-11-05T00:54:51.769Z,13.45
2022-11-05T00:57:18.104Z,13.75
2022-11-05T00:59:44.465Z,16.67
2022-11-05T01:02:10.852Z,26.73
2022-11-05T01:04:37.263Z,35.75
2022-11-05T01:07:03.592Z,23.75
2022-11-05T01:09:29.919Z,17.27
2022-11-05T01:11:56.240Z,18.35
2022-11-05T01:14:22.581Z,16.65
2022-11-05T01:16:48.912Z,16.27
2022-11-05T01:19:15.308Z,33.38
2022-11-05T01:21:41.674Z,19.00
2022-11-05T01:24:08.181Z,14.50
2022-11-05T01:26:34.527Z,17.23
2022-11-05T01:29:00.918Z,17.10
2022-11-05T01:31:28.542Z,17.50
2022-11-05T01:33:55.079Z,18.85
2022-11-05T01:36:21.430Z,19.20
2022-11-05T01:38:47.762Z,27.55
2022-11-05T01:41:14.150Z,19.80
2022-11-05T01:43:57.303Z,21.83
2022-11-05T01:46:25.666Z,19.65
2022-11-05T01:48:57.301Z,15.45
2022-11-05T01:51:28.157Z,13.15
2022-11-05T01:54:00.025Z,15.48
2022-11-05T01:56:35.374Z,15.07
2022-11-05T01:59:25.016Z,15.65
2022-11-05T02:01:51.957Z,15.98
2022-11-05T02:04:27.941Z,15.63
2022-11-05T02:06:54.486Z,12.00
2022-11-05T02:09:27.565Z,18.52
2022-11-05T02:11:54.089Z,18.65
2022-11-05T02:14:20.531Z,18.35
2022-11-05T02:17:00.995Z,26.42
2022-11-05T02:19:48.891Z,17.13
2022-11-05T02:22:31.920Z,19.25
2022-11-05T02:25:26.315Z,18.15
2022-11-05T02:28:16.694Z,12.85
2022-11-05T02:30:52.819Z,14.10
2022-11-05T02:33:41.620Z,13.43
2022-11-05T02:36:32.301Z,13.18
2022-11-05T02:39:10.812Z,18.05
2022-11-05T02:41:40.112Z,18.90
2022-11-05T02:44:20.376Z,11.77
2022-11-05T02:46:52.723Z,28.42
2022-11-05T02:49:29.848Z,13.55
2022-11-05T02:52:06.230Z,13.25
2022-11-05T02:54:38.500Z,15.40
2022-11-05T02:57:06.022Z,15.77
2022-11-05T02:59:32.504Z,14.30
2022-11-05T03:02:01.733Z,18.10
2022-11-05T03:04:29.825Z,14.48
2022-11-05T03:07:23.797Z,19.20
2022-11-05T03:10:05.407Z,18.83
2022-11-05T03:12:42.765Z,10.63
2022-11-05T03:15:19.976Z,18.15
2022-11-05T03:17:56.801Z,10.57
2022-11-05T03:20:34.204Z,15.77
2022-11-05T03:23:14.726Z,11.95
2022-11-05T03:25:49.765Z,10.75
2022-11-05T03:28:19.702Z,18.33
2022-11-05T03:30:50.289Z,13.40
2022-11-05T03:33:24.412Z,12.65
2022-11-05T03:35:55.488Z,12.23
2022-11-05T03:38:29.141Z,15.25
2022-11-05T03:40:59.667Z,11.60
2022-11-05T03:43:32.821Z,11.35
2022-11-05T03:46:04.000Z,14.65
2022-11-05T03:48:31.418Z,28.45
2022-11-05T03:51:06.818Z,13.90
2022-11-05T03:53:41.085Z,10.23
2022-11-05T03:56:18.233Z,14.23
2022-11-05T03:58:46.208Z,18.17
2022-11-05T04:01:12.821Z,6.22
2022-11-05T04:03:39.229Z,12.60
2022-11-05T04:06:26.295Z,23.30
2022-11-05T04:09:11.150Z,9.85
2022-11-05T04:11:56.528Z,7.30
2022-11-05T04:14:23.012Z,7.63
2022-11-05T04:17:08.585Z,7.65
2022-11-05T04:20:03.292Z,32.80
2022-11-05T04:22:53.245Z,9.25
2022-11-05T04:25:21.674Z,26.45
2022-11-05T04:27:49.020Z,12.25
2022-11-05T04:30:20.273Z,13.15
2022-11-05T04:32:56.552Z,8.43
2022-11-05T04:35:23.196Z,10.15
2022-11-05T04:37:49.837Z,18.77
2022-11-05T04:40:16.183Z,11.48
2022-11-05T04:42:42.506Z,14.48
2022-11-05T04:45:09.023Z,8.18
2022-11-05T04:47:35.358Z,9.32
2022-11-05T04:50:01.800Z,14.90
2022-11-05T04:52:28.205Z,11.55
2022-11-05T04:54:54.534Z,10.15
2022-11-05T04:57:20.861Z,10.52
2022-11-05T04:59:50.378Z,6.95
2022-11-05T05:02:16.814Z,6.97
2022-11-05T05:04:43.252Z,14.25
2022-11-05T05:07:09.591Z,9.38
2022-11-05T05:09:35.954Z,10.20
2022-11-05T05:12:02.673Z,7.72
2022-11-05T05:14:29.005Z,8.18
2022-11-05T05:16:55.337Z,12.95
2022-11-05T05:19:21.728Z,9.27
2022-11-05T05:21:48.088Z,9.95
2022-11-05T05:24:17.322Z,13.82
2022-11-05T05:26:46.396Z,9.77
2022-11-05T05:29:13.086Z,11.93
2022-11-05T05:31:40.294Z,11.85
2022-11-05T05:34:09.946Z,13.07
2022-11-05T05:36:36.269Z,13.85
2022-11-05T05:39:06.344Z,9.15
2022-11-05T05:41:33.009Z,8.50
2022-11-05T05:43:59.393Z,16.45
2022-11-05T05:46:25.716Z,18.27
2022-11-05T05:48:52.445Z,9.90
2022-11-05T05:51:19.650Z,8.75
2022-11-05T05:53:46.069Z,9.13
2022-11-05T05:56:15.034Z,10.23
2022-11-05T05:58:42.015Z,10.27
2022-11-05T06:01:17.226Z,9.15
2022-11-05T06:03:45.195Z,15.20
2022-11-05T06:06:15.661Z,9.02
2022-11-05T06:08:42.632Z,9.73
2022-11-05T06:11:09.522Z,8.55
2022-11-05T06:13:36.439Z,10.25
2022-11-05T06:16:08.407Z,10.63
2022-11-05T06:18:35.942Z,10.57
2022-11-05T06:21:03.879Z,10.88
2022-11-05T06:23:32.058Z,14.88
2022-11-05T06:26:03.283Z,9.38
2022-11-05T06:28:30.074Z,10.60
2022-11-05T06:30:57.698Z,10.60
2022-11-05T06:33:24.387Z,10.43
2022-11-05T06:35:50.732Z,12.57
2022-11-05T06:38:17.126Z,14.15
2022-11-05T06:40:43.567Z,12.82
2022-11-05T06:43:10.394Z,9.55
2022-11-05T06:45:36.961Z,13.45
2022-11-05T06:48:03.466Z,14.02
2022-11-05T06:50:29.908Z,15.73
2022-11-05T06:52:56.806Z,12.98
2022-11-05T06:55:24.429Z,17.23
2022-11-05T06:57:51.205Z,13.20
2022-11-05T07:00:18.170Z,14.13
2022-11-05T07:02:45.263Z,14.57
2022-11-05T07:05:12.586Z,13.93
2022-11-05T07:07:39.951Z,16.13
2022-11-05T07:10:08.636Z,11.75
2022-11-05T07:12:34.997Z,12.48
2022-11-05T07:15:01.606Z,12.25
2022-11-05T07:17:27.925Z,15.23
2022-11-05T07:19:54.264Z,14.18
2022-11-05T07:22:20.621Z,12.50
2022-11-05T07:24:47.945Z,15.98
2022-11-05T07:27:14.296Z,11.52
2022-11-05T07:29:40.646Z,16.38
2022-11-05T07:32:07.102Z,15.00
2022-11-05T07:34:33.456Z,11.32
2022-11-05T07:36:59.850Z,13.45
2022-11-05T07:39:26.188Z,13.35
2022-11-05T07:41:54.784Z,13.65
2022-11-05T07:44:21.787Z,14.20
2022-11-05T07:46:48.100Z,13.95
2022-11-05T07:49:14.462Z,13.55
2022-11-05T07:51:40.884Z,14.38
2022-11-05T07:54:07.334Z,11.68
2022-11-05T07:56:33.740Z,10.85
2022-11-05T07:59:00.411Z,11.65
2022-11-05T08:01:27.190Z,14.55
2022-11-05T08:03:53.796Z,18.13
2022-11-05T08:06:20.136Z,11.88
2022-11-05T08:08:47.605Z,12.82
2022-11-05T08:11:13.971Z,20.27
2022-11-05T08:13:40.378Z,16.45
2022-11-05T08:16:07.704Z,16.48
2022-11-05T08:18:34.125Z,13.50
2022-11-05T08:21:02.741Z,13.73
2022-11-05T08:23:30.635Z,24.25
2022-11-05T08:25:57.895Z,15.15
2022-11-05T08:28:26.217Z,14.05
2022-11-05T08:30:54.411Z,13.70
2022-11-05T08:33:21.902Z,19.48
2022-11-05T08:35:48.452Z,16.02
2022-11-05T08:38:18.234Z,13.60
2022-11-05T08:40:46.596Z,15.95
2022-11-05T08:43:14.474Z,17.05
2022-11-05T08:45:41.334Z,14.90
2022-11-05T08:48:10.395Z,13.82
2022-11-05T08:50:37.783Z,14.23
2022-11-05T08:53:05.498Z,14.02
2022-11-05T08:55:32.304Z,14.65
2022-11-05T08:58:00.881Z,16.00
2022-11-05T09:00:29.235Z,13.85
2022-11-05T09:02:58.906Z,14.85
2022-11-05T09:05:25.259Z,15.00
2022-11-05T09:07:53.172Z,16.88
2022-11-05T09:10:23.491Z,13.85
2022-11-05T09:12:49.932Z,15.25
2022-11-05T09:15:16.403Z,14.82
2022-11-05T09:17:42.738Z,15.93
2022-11-05T09:20:14.762Z,17.35
2022-11-05T09:22:43.401Z,15.85
2022-11-05T09:25:10.247Z,16.17
2022-11-05T09:27:36.579Z,15.27
2022-11-05T09:30:03.620Z,13.02
2022-11-05T09:32:33.646Z,17.52
2022-11-05T09:35:01.092Z,15.57
2022-11-05T09:37:28.379Z,15.30
2022-11-05T09:39:54.981Z,14.80
2022-11-05T09:42:25.228Z,14.45
2022-11-05T09:45:05.254Z,17.73
2022-11-05T09:47:45.812Z,16.25
2022-11-05T09:50:16.553Z,17.30
2022-11-05T09:52:43.181Z,13.90
2022-11-05T09:55:20.773Z,14.55
2022-11-05T09:57:53.275Z,15.55
2022-11-05T10:00:20.044Z,14.95
2022-11-05T10:02:57.342Z,16.65
2022-11-05T10:05:25.947Z,19.27
2022-11-05T10:08:24.399Z,16.95
2022-11-05T10:10:56.353Z,15.82
2022-11-05T10:13:35.933Z,17.02
2022-11-05T10:16:24.481Z,19.00
2022-11-05T10:19:37.460Z,18.10
2022-11-05T10:22:16.394Z,14.23
2022-11-05T10:24:47.025Z,15.05
2022-11-05T10:27:27.856Z,15.68
2022-11-05T10:29:54.350Z,17.63
2022-11-05T10:32:30.083Z,13.77
2022-11-05T10:34:59.992Z,12.63
2022-11-05T10:37:27.646Z,12.70
2022-11-05T10:39:55.080Z,12.48
2022-11-05T10:42:30.447Z,12.30
2022-11-05T10:45:05.726Z,15.95
2022-11-05T10:48:16.926Z,13.60
2022-11-05T10:50:44.021Z,13.57
2022-11-05T10:53:16.740Z,13.80
2022-11-05T10:55:50.936Z,14.93
2022-11-05T10:58:17.205Z,13.55
2022-11-05T11:01:00.007Z,12.65
2022-11-05T11:03:34.637Z,13.48
2022-11-05T11:06:04.572Z,11.98
2022-11-05T11:08:35.371Z,16.50
2022-11-05T11:11:12.018Z,11.57
2022-11-05T11:13:56.719Z,12.43
2022-11-05T11:16:27.015Z,12.55
2022-11-05T11:19:00.716Z,11.07
2022-11-05T11:21:28.681Z,10.60
2022-11-05T11:24:06.916Z,11.75
2022-11-05T11:26:37.854Z,9.52
2022-11-05T11:29:22.835Z,11.18
2022-11-05T11:31:49.251Z,10.40
2022-11-05T11:34:24.693Z,10.57
2022-11-05T11:36:55.328Z,9.93
2022-11-05T11:39:25.489Z,9.15
2022-11-05T11:41:55.685Z,10.70
2022-11-05T11:44:39.530Z,10.20
2022-11-05T11:47:12.069Z,10.00
2022-11-05T11:49:41.527Z,11.65
2022-11-05T11:52:15.764Z,9.52
2022-11-05T11:54:42.298Z,9.45
2022-11-05T11:57:25.707Z,9.07
2022-11-05T12:00:08.236Z,10.07
2022-11-05T12:03:14.672Z,8.07
2022-11-05T12:05:48.089Z,8.63
2022-11-05T12:08:42.887Z,8.80
2022-11-05T12:11:29.806Z,10.50
2022-11-05T12:14:12.872Z,8.20
2022-11-05T12:16:52.578Z,9.30
2022-11-05T12:19:46.957Z,8.15
2022-11-05T12:22:36.520Z,8.15
2022-11-05T12:25:24.558Z,10.38
2022-11-05T12:28:29.030Z,8.90
2022-11-05T12:31:22.931Z,8.02
2022-11-05T12:34:04.491Z,6.95
2022-11-05T12:36:30.780Z,8.35
2022-11-05T12:39:00.015Z,8.00
2022-11-05T12:41:43.518Z,9.50
2022-11-05T12:44:54.442Z,8.32
2022-11-05T12:47:49.232Z,7.10
2022-11-05T12:50:26.426Z,7.55
2022-11-05T12:53:22.308Z,9.65
2022-11-05T12:55:50.208Z,9.23
2022-11-05T12:58:26.801Z,7.65
2022-11-05T13:01:00.293Z,6.47
2022-11-05T13:03:42.392Z,6.63
2022-11-05T13:06:24.168Z,8.00
2022-11-05T13:09:02.206Z,8.25
2022-11-05T13:11:44.451Z,6.53
2022-11-05T13:14:18.214Z,6.43
2022-11-05T13:16:50.888Z,6.65
2022-11-05T13:19:23.915Z,7.57
2022-11-05T13:21:56.600Z,6.65
2022-11-05T13:24:37.864Z,5.45
2022-11-05T13:27:52.698Z,6.93
2022-11-05T13:30:26.106Z,8.38
2022-11-05T13:33:01.931Z,6.85
2022-11-05T13:35:45.078Z,5.60
2022-11-05T13:38:40.788Z,5.50
2022-11-05T13:41:36.150Z,7.78
2022-11-05T13:44:12.098Z,5.90
2022-11-05T13:50:06.729Z,7.68
2022-11-05T13:53:14.659Z,7.13
2022-11-05T13:55:52.474Z,8.63
2022-11-05T13:58:48.050Z,6.65
2022-11-05T14:01:21.795Z,5.70
2022-11-05T14:03:51.207Z,7.47
2022-11-05T14:06:37.850Z,5.50
2022-11-05T14:09:20.102Z,5.68
2022-11-05T14:11:53.784Z,4.72
2022-11-05T14:14:25.852Z,7.60
2022-11-05T14:17:12.961Z,8.20
2022-11-05T14:20:07.046Z,8.20
2022-11-05T14:22:33.377Z,3.92
2022-11-05T14:25:18.363Z,5.20
2022-11-05T14:27:49.227Z,9.05
2022-11-05T14:30:45.316Z,5.13
2022-11-05T14:33:25.711Z,5.18
2022-11-05T14:35:53.854Z,5.43
2022-11-05T14:38:23.430Z,8.73
2022-11-05T14:40:59.101Z,6.03
2022-11-05T14:43:27.842Z,5.40
2022-11-05T14:46:00.731Z,4.25
2022-11-05T14:48:42.084Z,6.18
2022-11-05T14:51:24.937Z,5.57
2022-11-05T14:54:03.058Z,4.30
2022-11-05T14:56:42.356Z,5.90
2022-11-05T14:59:24.105Z,7.18
2022-11-05T15:01:50.514Z,4.90
2022-11-05T15:04:33.326Z,3.80
2022-11-05T15:07:02.497Z,3.00
2022-11-05T15:09:50.957Z,6.32
2022-11-05T15:12:19.787Z,3.47
2022-11-05T15:14:58.325Z,3.85
2022-11-05T15:17:40.816Z,6.25
2022-11-05T15:20:17.701Z,7.03
2022-11-05T15:22:48.970Z,10.93
2022-11-05T15:25:46.701Z,3.58
2022-11-05T15:28:36.965Z,6.03
2022-11-05T15:31:12.533Z,8.55
2022-11-05T15:33:47.640Z,5.15
2022-11-05T15:36:23.979Z,10.97
2022-11-05T15:39:08.484Z,6.47
2022-11-05T15:41:38.065Z,6.03
2022-11-05T15:44:04.540Z,5.85
2022-11-05T15:46:31.239Z,8.07
2022-11-05T15:49:03.728Z,5.85
2022-11-05T15:51:30.280Z,6.00
2022-11-05T15:56:55.754Z,5.32
2022-11-05T15:59:24.370Z,7.03
2022-11-05T16:02:05.074Z,5.63
2022-11-05T16:04:34.433Z,10.38
2022-11-05T16:07:08.955Z,8.00
2022-11-05T16:09:39.903Z,9.52
2022-11-05T16:12:27.296Z,15.73
2022-11-05T16:15:04.305Z,10.68
2022-11-05T16:17:44.559Z,6.10
2022-11-05T16:20:32.124Z,6.03
2022-11-05T16:23:01.087Z,5.82
2022-11-05T16:25:37.576Z,5.75
2022-11-05T16:28:06.711Z,8.65
2022-11-05T16:30:33.150Z,8.05
2022-11-05T16:33:04.776Z,9.65
2022-11-05T16:35:31.385Z,16.88
2022-11-05T16:38:01.161Z,31.33
2022-11-05T16:40:27.534Z,32.50
2022-11-05T16:42:54.523Z,19.52
2022-11-05T16:45:24.074Z,13.10
2022-11-05T16:47:50.941Z,10.90
2022-11-05T16:50:24.536Z,11.88
2022-11-05T16:52:51.216Z,10.55
2022-11-05T16:55:19.022Z,7.72
2022-11-05T16:57:49.182Z,7.78
2022-11-05T17:00:17.891Z,7.28
2022-11-05T17:02:45.140Z,8.13
2022-11-05T17:05:26.828Z,7.10
2022-11-05T17:07:54.111Z,7.18
2022-11-05T17:10:21.793Z,9.05
2022-11-05T17:12:48.585Z,8.30
2022-11-05T17:15:22.692Z,9.05
2022-11-05T17:17:49.776Z,10.13
2022-11-05T17:20:39.864Z,11.68
2022-11-05T17:23:12.431Z,9.18
2022-11-05T17:25:45.819Z,8.70
2022-11-05T17:28:13.387Z,9.07
2022-11-05T17:30:41.648Z,7.78
2022-11-05T17:33:09.319Z,8.68
2022-11-05T17:35:38.281Z,8.93
2022-11-05T17:38:04.838Z,8.45
2022-11-05T17:40:33.481Z,7.97
2022-11-05T17:42:59.817Z,6.80
2022-11-05T17:45:26.132Z,11.18
2022-11-05T17:47:52.650Z,8.85
2022-11-05T17:50:19.375Z,8.70
2022-11-05T17:52:46.045Z,12.18
2022-11-05T17:55:17.197Z,7.30
2022-11-05T17:57:46.073Z,9.13
2022-11-05T18:00:14.617Z,11.43
2022-11-05T18:02:41.096Z,11.70
2022-11-05T18:05:08.014Z,12.35
2022-11-05T18:07:34.396Z,11.02
2022-11-05T18:10:00.764Z,8.25
2022-11-05T18:12:27.141Z,10.05
2022-11-05T18:14:53.469Z,8.68
2022-11-05T18:17:19.820Z,9.85
2022-11-05T18:19:46.183Z,8.75
2022-11-05T18:22:12.529Z,10.15
2022-11-05T18:24:38.866Z,12.40
2022-11-05T18:27:05.222Z,7.63
2022-11-05T18:29:31.601Z,10.30
2022-11-05T18:31:58.023Z,10.75
2022-11-05T18:34:24.450Z,9.68
2022-11-05T18:36:56.008Z,7.68
2022-11-05T18:39:23.163Z,8.90
2022-11-05T18:41:49.544Z,8.95
2022-11-05T18:44:16.668Z,8.48
2022-11-05T18:46:57.601Z,9.70
2022-11-05T18:49:25.407Z,9.73
2022-11-05T18:51:51.744Z,10.60
2022-11-05T18:54:18.108Z,8.70
2022-11-05T18:56:47.291Z,7.82
2022-11-05T18:59:44.661Z,10.10
2022-11-05T19:02:03.613Z,9.93
2022-11-05T19:04:30.552Z,12.35
2022-11-05T19:07:00.199Z,10.45
2022-11-05T19:09:30.720Z,10.57
2022-11-05T19:11:57.109Z,9.00
2022-11-05T19:14:23.779Z,7.95
2022-11-05T19:16:50.137Z,14.05
2022-11-05T19:19:16.537Z,11.52
2022-11-05T19:21:42.880Z,9.15
2022-11-05T19:24:10.243Z,9.68
2022-11-05T19:26:36.630Z,11.40
2022-11-05T19:29:03.659Z,10.52
2022-11-05T19:31:31.387Z,12.73
2022-11-05T19:33:58.192Z,9.02
2022-11-05T19:36:25.281Z,10.70
2022-11-05T19:38:59.908Z,6.93
2022-11-05T19:41:26.826Z,7.22
2022-11-05T19:43:54.829Z,9.13
2022-11-05T19:46:22.929Z,8.73
2022-11-05T19:48:49.780Z,9.45
2022-11-05T19:51:22.261Z,7.10
2022-11-05T19:53:51.245Z,6.13
2022-11-05T19:56:20.383Z,5.22
2022-11-05T19:58:47.006Z,8.43
2022-11-05T20:01:15.549Z,7.40
2022-11-05T20:03:42.119Z,6.85
2022-11-05T20:06:11.688Z,7.20
2022-11-05T20:08:53.425Z,7.40
2022-11-05T20:11:25.580Z,6.45
2022-11-05T20:13:52.134Z,7.00
2022-11-05T20:16:24.584Z,5.88
2022-11-05T20:18:51.324Z,14.20
2022-11-05T20:21:18.694Z,6.70
2022-11-05T20:23:45.034Z,10.35
2022-11-05T20:26:12.511Z,11.48
2022-11-05T20:28:40.358Z,7.32
2022-11-05T20:31:17.679Z,7.22
2022-11-05T20:33:45.265Z,6.43
2022-11-05T20:36:16.990Z,7.15
2022-11-05T20:38:47.156Z,8.18
2022-11-05T20:41:13.635Z,6.10
2022-11-05T20:43:41.018Z,8.93
2022-11-05T20:46:09.301Z,6.38
2022-11-05T20:48:35.981Z,6.20
2022-11-05T20:51:07.818Z,6.00
2022-11-05T20:53:35.381Z,6.07
2022-11-05T20:56:07.453Z,13.05
2022-11-05T20:58:35.360Z,10.20
2022-11-05T21:01:02.084Z,10.80
2022-11-05T21:03:28.550Z,22.08
2022-11-05T21:05:59.744Z,12.02
2022-11-05T21:08:27.274Z,11.75
2022-11-05T21:10:54.668Z,11.32
2022-11-05T21:13:21.904Z,11.38
2022-11-05T21:15:51.380Z,7.38
2022-11-05T21:18:19.335Z,11.48
2022-11-05T21:20:46.793Z,9.15
2022-11-05T21:23:13.926Z,6.25
2022-11-05T21:25:43.855Z,5.95
2022-11-05T21:28:11.981Z,6.00
2022-11-05T21:30:41.824Z,5.75
2022-11-05T21:33:08.809Z,6.72
2022-11-05T21:35:39.257Z,8.13
2022-11-05T21:38:05.604Z,8.60
2022-11-05T21:40:32.665Z,7.22
2022-11-05T21:42:59.010Z,6.97
2022-11-05T21:45:25.949Z,7.13
2022-11-05T21:47:52.401Z,5.72
2022-11-05T21:50:21.939Z,6.40
2022-11-05T21:53:07.234Z,7.30
2022-11-05T21:55:52.189Z,7.55
2022-11-05T21:58:37.485Z,7.00
2022-11-05T22:01:03.947Z,5.97
2022-11-05T22:03:30.291Z,5.05
2022-11-05T22:05:57.049Z,7.93
2022-11-05T22:08:23.409Z,8.07
2022-11-05T22:10:49.749Z,7.22
2022-11-05T22:13:16.716Z,6.95
2022-11-05T22:15:43.041Z,13.98
2022-11-05T22:18:09.604Z,10.30
2022-11-05T22:20:39.174Z,8.35
2022-11-05T22:23:10.837Z,8.98
2022-11-05T22:25:37.946Z,9.43
2022-11-05T22:28:04.494Z,8.35
2022-11-05T22:30:34.483Z,9.20
2022-11-05T22:33:01.365Z,6.97
2022-11-05T22:35:28.089Z,5.60
2022-11-05T22:37:54.501Z,7.45
2022-11-05T22:40:23.804Z,8.35
2022-11-05T22:42:50.535Z,9.60
2022-11-05T22:45:16.904Z,8.38
2022-11-05T22:47:43.232Z,7.47
2022-11-05T22:50:09.808Z,8.38
2022-11-05T22:52:36.146Z,7.63
2022-11-05T22:55:04.860Z,9.23
2022-11-05T22:57:31.199Z,7.47
2022-11-05T22:59:57.506Z,6.93
2022-11-05T23:02:24.166Z,9.30
2022-11-05T23:04:53.843Z,8.05
2022-11-05T23:07:39.031Z,8.10
2022-11-05T23:10:24.162Z,9.30
2022-11-05T23:12:50.641Z,7.85
2022-11-05T23:15:35.370Z,9.05
2022-11-05T23:18:20.652Z,7.05
2022-11-05T23:21:05.322Z,8.82
2022-11-05T23:23:50.216Z,6.45
2022-11-05T23:26:35.477Z,8.00
2022-11-05T23:29:01.888Z,7.40
2022-11-05T23:31:47.109Z,9.05
2022-11-05T23:34:13.451Z,9.15
2022-11-05T23:36:58.441Z,7.43
2022-11-05T23:39:24.785Z,7.45
2022-11-05T23:42:10.162Z,7.38
2022-11-05T23:44:55.095Z,9.60
2022-11-05T23:47:39.692Z,6.80
2022-11-05T23:50:06.164Z,7.75
2022-11-05T23:52:32.688Z,7.82
2022-11-05T23:54:59.050Z,6.18
2022-11-05T23:57:25.380Z,7.47
2022-11-05T23:59:51.756Z,8.32
